createdAt,value
2023-03-07T00:00:16.499Z,92.06
2023-03-07T00:01:33.021Z,91.96
2023-03-07T00:02:35.344Z,92.15
2023-03-07T00:03:37.408Z,91.88
2023-03-07T00:04:40.165Z,92.08
2023-03-07T00:05:42.984Z,92.13
2023-03-07T00:06:45.352Z,92.12
2023-03-07T00:07:47.237Z,92.01
2023-03-07T00:08:51.418Z,91.88
2023-03-07T00:09:53.433Z,91.90
2023-03-07T00:11:01.886Z,92.15
2023-03-07T00:12:04.974Z,92.03
2023-03-07T00:13:07.388Z,92.36
2023-03-07T00:14:09.305Z,92.66
2023-03-07T00:15:11.826Z,92.68
2023-03-07T00:16:17.342Z,92.85
2023-03-07T00:17:19.385Z,92.83
2023-03-07T00:18:21.280Z,92.89
2023-03-07T00:19:23.309Z,92.88
2023-03-07T00:20:26.081Z,93.00
2023-03-07T00:21:28.184Z,92.80
2023-03-07T00:22:30.102Z,93.10
2023-03-07T00:23:34.118Z,93.20
2023-03-07T00:24:36.283Z,93.39
2023-03-07T00:25:38.342Z,93.44
2023-03-07T00:26:41.234Z,93.68
2023-03-07T00:27:43.306Z,93.54
2023-03-07T00:28:47.233Z,93.73
2023-03-07T00:29:49.247Z,93.96
2023-03-07T00:30:51.477Z,94.15
2023-03-07T00:31:54.110Z,94.21
2023-03-07T00:32:56.032Z,94.33
2023-03-07T00:33:58.227Z,94.32
2023-03-07T00:35:00.956Z,94.36
2023-03-07T00:36:06.463Z,94.49
2023-03-07T00:37:09.134Z,94.34
2023-03-07T00:38:11.353Z,94.34
2023-03-07T00:39:14.124Z,94.40
2023-03-07T00:40:17.515Z,94.35
2023-03-07T00:41:25.759Z,94.32
2023-03-07T00:42:27.790Z,94.37
2023-03-07T00:43:30.780Z,94.39
2023-03-07T00:44:33.778Z,94.37
2023-03-07T00:45:35.782Z,94.35
2023-03-07T00:46:38.062Z,94.26
2023-03-07T00:47:39.960Z,94.13
2023-03-07T00:48:42.703Z,94.27
2023-03-07T00:49:44.770Z,94.32
2023-03-07T00:50:47.382Z,94.33
2023-03-07T00:51:50.155Z,94.30
2023-03-07T00:52:52.415Z,94.46
2023-03-07T00:53:54.320Z,94.58
2023-03-07T00:54:56.254Z,94.54
2023-03-07T00:56:04.527Z,94.64
2023-03-07T00:57:06.697Z,94.70
2023-03-07T00:58:08.704Z,94.70
2023-03-07T00:59:10.995Z,94.77
2023-03-07T01:00:14.108Z,94.84
2023-03-07T01:01:19.892Z,94.95
2023-03-07T01:02:21.914Z,95.01
2023-03-07T01:03:24.713Z,95.13
2023-03-07T01:04:26.852Z,95.18
2023-03-07T01:05:29.915Z,95.21
2023-03-07T01:06:33.506Z,95.36
2023-03-07T01:07:35.671Z,95.45
2023-03-07T01:08:37.697Z,95.47
2023-03-07T01:09:40.863Z,95.47
2023-03-07T01:10:43.775Z,95.42
2023-03-07T01:11:45.686Z,95.53
2023-03-07T01:12:47.593Z,95.61
2023-03-07T01:13:49.775Z,95.54
2023-03-07T01:14:51.778Z,95.44
2023-03-07T01:15:55.574Z,95.48
2023-03-07T01:16:58.178Z,95.56
2023-03-07T01:18:00.185Z,95.46
2023-03-07T01:19:05.422Z,95.55
2023-03-07T01:20:09.259Z,95.52
2023-03-07T01:21:18.517Z,95.38
2023-03-07T01:22:21.480Z,95.39
2023-03-07T01:23:24.571Z,95.41
2023-03-07T01:24:26.554Z,95.48
2023-03-07T01:25:28.946Z,95.55
2023-03-07T01:26:32.153Z,95.61
2023-03-07T01:27:34.156Z,95.71
2023-03-07T01:28:36.057Z,95.75
2023-03-07T01:29:37.980Z,95.70
2023-03-07T01:30:41.518Z,95.59
2023-03-07T01:31:43.551Z,95.61
2023-03-07T01:32:45.522Z,95.66
2023-03-07T01:33:49.115Z,95.74
2023-03-07T01:34:51.039Z,95.76
2023-03-07T01:35:54.006Z,95.72
2023-03-07T01:36:56.227Z,95.76
2023-03-07T01:37:58.275Z,95.71
2023-03-07T01:39:05.019Z,95.87
2023-03-07T01:40:09.121Z,95.80
2023-03-07T01:41:11.742Z,95.68
2023-03-07T01:42:14.366Z,95.69
2023-03-07T01:43:28.812Z,95.64
2023-03-07T01:44:31.295Z,95.68
2023-03-07T01:45:36.972Z,95.55
2023-03-07T01:46:48.754Z,95.55
2023-03-07T01:47:50.634Z,95.42
2023-03-07T01:49:02.033Z,95.42
2023-03-07T01:50:10.965Z,95.38
2023-03-07T01:51:13.144Z,95.30
2023-03-07T01:52:24.583Z,95.27
2023-03-07T01:53:26.395Z,95.32
2023-03-07T01:54:30.159Z,95.32
2023-03-07T01:55:36.224Z,95.45
2023-03-07T01:56:39.211Z,95.49
2023-03-07T01:57:44.530Z,95.41
2023-03-07T01:58:47.056Z,95.39
2023-03-07T01:59:53.221Z,95.12
2023-03-07T02:00:55.285Z,95.20
2023-03-07T02:02:00.686Z,95.20
2023-03-07T02:04:37.465Z,94.92
2023-03-07T02:05:49.039Z,94.62
2023-03-07T02:06:51.107Z,94.49
2023-03-07T02:07:56.117Z,94.48
2023-03-07T02:09:00.424Z,94.48
2023-03-07T02:10:03.923Z,94.45
2023-03-07T02:11:07.696Z,94.25
2023-03-07T02:12:10.572Z,94.25
2023-03-07T02:13:13.066Z,94.33
2023-03-07T02:14:15.346Z,94.44
2023-03-07T02:15:17.816Z,94.42
2023-03-07T02:16:21.104Z,94.36
2023-03-07T02:17:23.483Z,94.31
2023-03-07T02:18:29.196Z,94.25
2023-03-07T02:19:52.767Z,94.25
2023-03-07T02:21:04.653Z,94.55
2023-03-07T02:23:32.688Z,94.75
2023-03-07T02:24:58.279Z,94.71
2023-03-07T02:27:39.293Z,94.64
2023-03-07T02:28:43.863Z,94.66
2023-03-07T02:29:46.729Z,94.57
2023-03-07T02:30:58.087Z,94.64
2023-03-07T02:32:00.119Z,94.85
2023-03-07T02:33:02.064Z,95.14
2023-03-07T02:34:19.294Z,95.31
2023-03-07T02:35:24.597Z,95.41
2023-03-07T02:36:33.407Z,95.38
2023-03-07T02:37:38.097Z,95.51
2023-03-07T02:38:43.710Z,95.57
2023-03-07T02:39:47.547Z,95.59
2023-03-07T02:40:52.462Z,95.67
2023-03-07T02:41:55.781Z,95.79
2023-03-07T02:43:01.000Z,95.89
2023-03-07T02:44:04.139Z,95.94
2023-03-07T02:45:10.073Z,95.88
2023-03-07T02:46:12.374Z,95.77
2023-03-07T02:47:15.659Z,95.88
2023-03-07T02:48:18.278Z,95.76
2023-03-07T02:49:20.198Z,95.85
2023-03-07T02:50:22.400Z,95.83
2023-03-07T02:51:24.482Z,95.86
2023-03-07T02:52:27.438Z,95.93
2023-03-07T02:53:29.361Z,95.91
2023-03-07T02:54:31.422Z,95.99
2023-03-07T02:55:33.304Z,96.05
2023-03-07T02:56:35.516Z,96.21
2023-03-07T02:57:37.493Z,96.28
2023-03-07T02:58:39.403Z,96.38
2023-03-07T02:59:41.372Z,96.40
2023-03-07T03:00:44.530Z,96.48
2023-03-07T03:01:46.726Z,96.57
2023-03-07T03:02:48.853Z,96.62
2023-03-07T03:03:51.243Z,96.67
2023-03-07T03:04:53.376Z,96.75
2023-03-07T03:05:55.641Z,96.73
2023-03-07T03:06:58.466Z,96.77
2023-03-07T03:08:00.362Z,96.77
2023-03-07T03:09:02.989Z,96.78
2023-03-07T03:10:06.785Z,96.86
2023-03-07T03:11:08.922Z,96.85
2023-03-07T03:12:10.815Z,96.80
2023-03-07T03:13:12.698Z,96.85
2023-03-07T03:14:14.687Z,96.91
2023-03-07T03:15:16.860Z,96.97
2023-03-07T03:16:18.885Z,96.95
2023-03-07T03:17:21.795Z,96.99
2023-03-07T03:18:29.359Z,97.02
2023-03-07T03:19:31.304Z,96.94
2023-03-07T03:20:33.725Z,96.78
2023-03-07T03:21:35.730Z,96.90
2023-03-07T03:22:39.832Z,96.89
2023-03-07T03:23:41.949Z,96.78
2023-03-07T03:24:43.970Z,96.61
2023-03-07T03:25:45.851Z,96.66
2023-03-07T03:26:47.859Z,96.63
2023-03-07T03:27:51.547Z,96.46
2023-03-07T03:28:54.136Z,96.49
2023-03-07T03:29:56.034Z,96.44
2023-03-07T03:31:03.851Z,96.43
2023-03-07T03:32:06.881Z,96.48
2023-03-07T03:33:08.937Z,96.44
2023-03-07T03:34:11.209Z,96.44
2023-03-07T03:35:13.569Z,96.41
2023-03-07T03:36:16.508Z,96.35
2023-03-07T03:37:18.568Z,96.51
2023-03-07T03:38:20.525Z,96.61
2023-03-07T03:39:22.439Z,96.64
2023-03-07T03:40:24.583Z,96.50
2023-03-07T03:41:27.623Z,96.46
2023-03-07T03:42:30.390Z,96.36
2023-03-07T03:43:33.581Z,96.36
2023-03-07T03:44:35.496Z,96.52
2023-03-07T03:45:37.609Z,96.54
2023-03-07T03:46:39.588Z,96.48
2023-03-07T03:47:42.797Z,96.52
2023-03-07T03:48:52.093Z,96.41
2023-03-07T03:49:54.024Z,96.23
2023-03-07T03:51:08.633Z,96.18
2023-03-07T03:52:10.719Z,96.04
2023-03-07T03:53:12.721Z,95.89
2023-03-07T03:54:14.870Z,95.64
2023-03-07T03:55:16.983Z,95.64
2023-03-07T03:56:22.530Z,95.70
2023-03-07T03:57:25.957Z,95.76
2023-03-07T03:58:28.752Z,95.66
2023-03-07T03:59:31.440Z,95.62
2023-03-07T04:00:33.522Z,95.58
2023-03-07T04:01:35.707Z,95.53
2023-03-07T04:02:38.057Z,95.44
2023-03-07T04:03:42.531Z,95.44
2023-03-07T04:04:44.437Z,95.46
2023-03-07T04:05:46.308Z,95.53
2023-03-07T04:06:48.943Z,95.57
2023-03-07T04:07:52.375Z,95.67
2023-03-07T04:08:55.116Z,95.86
2023-03-07T04:09:57.126Z,95.88
2023-03-07T04:10:59.146Z,96.05
2023-03-07T04:12:01.760Z,95.96
2023-03-07T04:13:03.660Z,95.98
2023-03-07T04:14:06.009Z,96.10
2023-03-07T04:15:09.025Z,95.99
2023-03-07T04:16:11.406Z,95.99
2023-03-07T04:17:13.385Z,96.02
2023-03-07T04:18:15.305Z,96.05
2023-03-07T04:19:17.160Z,96.04
2023-03-07T04:20:19.165Z,96.15
2023-03-07T04:21:21.876Z,96.01
2023-03-07T04:22:24.678Z,96.03
2023-03-07T04:23:27.661Z,96.02
2023-03-07T04:24:29.646Z,96.12
2023-03-07T04:25:32.261Z,96.04
2023-03-07T04:26:35.556Z,96.01
2023-03-07T04:27:37.610Z,95.93
2023-03-07T04:28:41.767Z,95.83
2023-03-07T04:29:43.846Z,95.85
2023-03-07T04:30:46.015Z,95.70
2023-03-07T04:31:48.142Z,95.70
2023-03-07T04:32:50.773Z,95.61
2023-03-07T04:33:54.166Z,95.50
2023-03-07T04:34:56.274Z,95.54
2023-03-07T04:35:58.178Z,95.43
2023-03-07T04:37:00.310Z,95.36
2023-03-07T04:38:02.206Z,95.39
2023-03-07T04:39:04.339Z,95.56
2023-03-07T04:40:07.799Z,95.62
2023-03-07T04:41:13.556Z,95.60
2023-03-07T04:42:15.632Z,95.41
2023-03-07T04:43:17.521Z,95.49
2023-03-07T04:44:19.520Z,95.55
2023-03-07T04:45:21.548Z,95.44
2023-03-07T04:46:25.596Z,95.30
2023-03-07T04:47:28.267Z,95.33
2023-03-07T04:48:30.158Z,95.18
2023-03-07T04:49:32.105Z,95.11
2023-03-07T04:50:34.180Z,94.89
2023-03-07T04:51:37.373Z,94.81
2023-03-07T04:52:39.628Z,94.92
2023-03-07T04:53:41.942Z,94.87
2023-03-07T04:54:44.015Z,94.93
2023-03-07T04:55:46.308Z,94.75
2023-03-07T04:56:49.741Z,94.75
2023-03-07T04:57:51.625Z,94.48
2023-03-07T04:58:53.520Z,94.28
2023-03-07T04:59:55.424Z,94.12
2023-03-07T05:00:59.504Z,94.07
2023-03-07T05:02:01.540Z,93.87
2023-03-07T05:03:03.592Z,93.60
2023-03-07T05:04:07.426Z,93.44
2023-03-07T05:05:10.008Z,93.22
2023-03-07T05:06:14.652Z,92.96
2023-03-07T05:07:16.830Z,92.74
2023-03-07T05:08:19.971Z,92.40
2023-03-07T05:09:21.991Z,92.29
2023-03-07T05:10:24.080Z,92.19
2023-03-07T05:11:26.587Z,92.11
2023-03-07T05:12:28.481Z,92.15
2023-03-07T05:13:30.982Z,91.95
2023-03-07T05:14:32.901Z,92.15
2023-03-07T05:15:35.222Z,92.08
2023-03-07T05:16:37.543Z,92.11
2023-03-07T05:17:39.685Z,92.11
2023-03-07T05:18:41.726Z,91.95
2023-03-07T05:19:43.632Z,91.81
2023-03-07T05:20:46.310Z,91.64
2023-03-07T05:21:48.196Z,91.57
2023-03-07T05:22:50.334Z,91.44
2023-03-07T05:23:52.447Z,91.08
2023-03-07T05:24:54.421Z,90.92
2023-03-07T05:25:57.597Z,90.84
2023-03-07T05:26:59.821Z,90.69
2023-03-07T05:28:02.192Z,90.54
2023-03-07T05:29:05.051Z,90.38
2023-03-07T05:30:10.183Z,90.37
2023-03-07T05:31:13.391Z,90.44
2023-03-07T05:32:16.876Z,90.41
2023-03-07T05:33:19.111Z,90.15
2023-03-07T05:34:21.326Z,89.97
2023-03-07T05:35:23.205Z,89.82
2023-03-07T05:36:25.369Z,89.75
2023-03-07T05:37:27.828Z,89.62
2023-03-07T05:38:29.730Z,89.70
2023-03-07T05:39:31.614Z,89.76
2023-03-07T05:40:34.177Z,89.99
2023-03-07T05:41:37.718Z,90.13
2023-03-07T05:42:40.112Z,90.35
2023-03-07T05:43:41.995Z,90.41
2023-03-07T05:44:44.114Z,90.64
2023-03-07T05:45:46.124Z,90.95
2023-03-07T05:46:48.314Z,90.94
2023-03-07T05:47:51.105Z,90.94
2023-03-07T05:48:53.039Z,90.92
2023-03-07T05:49:55.647Z,90.76
2023-03-07T05:51:00.897Z,90.64
2023-03-07T05:52:03.188Z,90.73
2023-03-07T05:53:05.199Z,90.58
2023-03-07T05:54:07.082Z,90.79
2023-03-07T05:55:09.920Z,90.74
2023-03-07T05:56:12.977Z,90.55
2023-03-07T05:57:15.015Z,90.83
2023-03-07T05:58:17.143Z,90.81
2023-03-07T05:59:19.153Z,90.74
2023-03-07T06:00:22.554Z,90.76
2023-03-07T06:01:24.507Z,90.85
2023-03-07T06:02:26.464Z,90.76
2023-03-07T06:03:30.074Z,90.87
2023-03-07T06:04:32.196Z,90.96
2023-03-07T06:05:34.072Z,90.80
2023-03-07T06:06:36.490Z,90.57
2023-03-07T06:07:38.360Z,90.43
2023-03-07T06:08:40.330Z,89.92
2023-03-07T06:09:42.238Z,88.76
2023-03-07T06:10:53.011Z,87.74
2023-03-07T06:11:55.729Z,86.80
2023-03-07T06:12:57.851Z,86.07
2023-03-07T06:14:00.250Z,85.19
2023-03-07T06:15:04.068Z,84.45
2023-03-07T06:16:06.522Z,83.86
2023-03-07T06:17:08.551Z,83.73
2023-03-07T06:18:10.706Z,84.01
2023-03-07T06:19:12.661Z,83.79
2023-03-07T06:20:15.260Z,83.29
2023-03-07T06:21:18.770Z,82.89
2023-03-07T06:22:20.719Z,83.02
2023-03-07T06:23:22.721Z,82.97
2023-03-07T06:24:24.625Z,82.97
2023-03-07T06:25:26.572Z,82.78
2023-03-07T06:26:28.772Z,83.12
2023-03-07T06:27:34.714Z,83.67
2023-03-07T06:28:36.688Z,83.92
2023-03-07T06:29:38.603Z,84.34
2023-03-07T06:30:40.757Z,85.23
2023-03-07T06:31:42.667Z,85.54
2023-03-07T06:32:44.919Z,86.78
2023-03-07T06:33:48.095Z,86.85
2023-03-07T06:34:50.437Z,87.38
2023-03-07T06:35:52.612Z,88.06
2023-03-07T06:36:54.689Z,88.40
2023-03-07T06:37:56.679Z,88.81
2023-03-07T06:38:58.981Z,90.10
2023-03-07T06:40:01.196Z,91.35
2023-03-07T06:41:04.260Z,92.46
2023-03-07T06:42:06.613Z,93.52
2023-03-07T06:43:11.699Z,93.96
2023-03-07T06:44:16.978Z,94.73
2023-03-07T06:45:20.099Z,95.42
2023-03-07T06:46:22.288Z,95.86
2023-03-07T06:47:24.177Z,96.25
2023-03-07T06:48:26.393Z,97.04
2023-03-07T06:49:28.387Z,98.04
2023-03-07T06:50:35.405Z,99.00
2023-03-07T06:51:36.845Z,99.51
2023-03-07T06:52:38.631Z,100.00
2023-03-07T06:53:40.634Z,100.00
2023-03-07T06:54:42.764Z,100.00
2023-03-07T06:55:49.339Z,100.00
2023-03-07T06:56:52.807Z,100.00
2023-03-07T06:57:54.740Z,100.00
2023-03-07T06:58:57.345Z,100.00
2023-03-07T07:00:00.737Z,100.00
2023-03-07T07:01:02.864Z,100.00
2023-03-07T07:02:06.088Z,100.00
2023-03-07T07:03:12.182Z,100.00
2023-03-07T07:04:14.303Z,100.00
2023-03-07T07:05:16.561Z,100.00
2023-03-07T07:06:18.997Z,100.00
2023-03-07T07:07:20.885Z,100.00
2023-03-07T07:08:22.863Z,100.00
2023-03-07T07:09:24.740Z,100.00
2023-03-07T07:10:26.870Z,100.00
2023-03-07T07:11:29.105Z,100.00
2023-03-07T07:12:31.072Z,100.00
2023-03-07T07:13:32.947Z,100.00
2023-03-07T07:14:35.754Z,100.00
2023-03-07T07:15:38.375Z,100.00
2023-03-07T07:16:40.667Z,100.00
2023-03-07T07:17:42.798Z,100.00
2023-03-07T07:18:45.474Z,100.00
2023-03-07T07:19:47.452Z,100.00
2023-03-07T07:20:56.018Z,100.00
2023-03-07T07:21:58.302Z,100.00
2023-03-07T07:23:00.280Z,100.00
2023-03-07T07:24:02.446Z,100.00
2023-03-07T07:25:05.739Z,100.00
2023-03-07T07:26:08.450Z,100.00
2023-03-07T07:27:12.558Z,100.00
2023-03-07T07:28:14.659Z,100.00
2023-03-07T07:29:16.557Z,100.00
2023-03-07T07:30:18.667Z,100.00
2023-03-07T07:31:21.224Z,100.00
2023-03-07T07:32:23.948Z,100.00
2023-03-07T07:33:26.222Z,100.00
2023-03-07T07:34:29.154Z,100.00
2023-03-07T07:35:31.073Z,100.00
2023-03-07T07:36:33.597Z,100.00
2023-03-07T07:37:35.763Z,100.00
2023-03-07T07:38:38.058Z,100.00
2023-03-07T07:39:39.971Z,100.00
2023-03-07T07:40:42.103Z,100.00
2023-03-07T07:41:44.590Z,100.00
2023-03-07T07:42:52.289Z,100.00
2023-03-07T07:43:54.223Z,100.00
2023-03-07T07:44:57.226Z,100.00
2023-03-07T07:45:59.148Z,100.00
2023-03-07T07:47:01.501Z,100.00
2023-03-07T07:48:03.645Z,100.00
2023-03-07T07:49:05.619Z,100.00
2023-03-07T07:50:08.726Z,100.00
2023-03-07T07:51:10.638Z,100.00
2023-03-07T07:52:12.506Z,100.00
2023-03-07T07:53:14.407Z,100.00
2023-03-07T07:54:16.330Z,100.00
2023-03-07T07:55:18.218Z,100.00
2023-03-07T07:56:20.858Z,100.00
2023-03-07T07:57:25.462Z,100.00
2023-03-07T07:58:27.579Z,100.00
2023-03-07T07:59:29.482Z,100.00
2023-03-07T08:00:31.946Z,100.00
2023-03-07T08:01:33.947Z,100.00
2023-03-07T08:02:36.322Z,100.00
2023-03-07T08:03:38.737Z,100.00
2023-03-07T08:04:41.043Z,100.00
2023-03-07T08:05:45.895Z,100.00
2023-03-07T08:06:48.855Z,100.00
2023-03-07T08:07:50.790Z,100.00
2023-03-07T08:08:53.379Z,100.00
2023-03-07T08:09:57.857Z,100.00
2023-03-07T08:11:00.141Z,100.00
2023-03-07T08:12:02.379Z,100.00
2023-03-07T08:13:04.384Z,100.00
2023-03-07T08:14:06.256Z,100.00
2023-03-07T08:15:09.339Z,100.00
2023-03-07T08:16:13.792Z,100.00
2023-03-07T08:17:15.800Z,100.00
2023-03-07T08:18:17.911Z,100.00
2023-03-07T08:19:19.819Z,100.00
2023-03-07T08:20:21.903Z,100.00
2023-03-07T08:21:26.016Z,100.00
2023-03-07T08:22:28.011Z,100.00
2023-03-07T08:23:29.881Z,100.00
2023-03-07T08:24:40.271Z,100.00
2023-03-07T08:25:36.442Z,100.00
2023-03-07T08:26:38.448Z,100.00
2023-03-07T08:27:40.789Z,100.00
2023-03-07T08:28:43.105Z,100.00
2023-03-07T08:29:50.194Z,100.00
2023-03-07T08:30:52.611Z,100.00
2023-03-07T08:31:54.672Z,100.00
2023-03-07T08:32:59.242Z,100.00
2023-03-07T08:34:02.176Z,100.00
2023-03-07T08:35:05.359Z,100.00
2023-03-07T08:36:08.544Z,100.00
2023-03-07T08:37:10.785Z,100.00
2023-03-07T08:38:12.671Z,100.00
2023-03-07T08:39:14.559Z,100.00
2023-03-07T08:40:18.007Z,100.00
2023-03-07T08:41:21.996Z,100.00
2023-03-07T08:42:24.340Z,100.00
2023-03-07T08:43:28.812Z,100.00
2023-03-07T08:44:31.589Z,100.00
2023-03-07T08:45:36.129Z,100.00
2023-03-07T08:46:38.263Z,100.00
2023-03-07T08:47:40.241Z,100.00
2023-03-07T08:48:42.357Z,100.00
2023-03-07T08:49:44.735Z,100.00
2023-03-07T08:50:47.260Z,100.00
2023-03-07T08:51:49.931Z,100.00
2023-03-07T08:52:53.013Z,100.00
2023-03-07T08:53:57.461Z,100.00
2023-03-07T08:54:59.414Z,100.00
2023-03-07T08:56:11.539Z,100.00
2023-03-07T08:57:13.571Z,100.00
2023-03-07T08:58:15.580Z,100.00
2023-03-07T08:59:17.668Z,100.00
2023-03-07T09:00:20.385Z,100.00
2023-03-07T09:01:23.320Z,100.00
2023-03-07T09:02:25.581Z,100.00
2023-03-07T09:03:27.470Z,100.00
2023-03-07T09:04:29.520Z,100.00
2023-03-07T09:05:32.219Z,100.00
2023-03-07T09:06:34.785Z,100.00
2023-03-07T09:07:36.690Z,100.00
2023-03-07T09:08:38.705Z,100.00
2023-03-07T09:09:40.865Z,100.00
2023-03-07T09:10:42.982Z,100.00
2023-03-07T09:11:44.880Z,100.00
2023-03-07T09:12:47.991Z,100.00
2023-03-07T09:13:52.799Z,100.00
2023-03-07T09:14:54.347Z,100.00
2023-03-07T09:15:56.424Z,100.00
2023-03-07T09:16:58.694Z,100.00
2023-03-07T09:18:00.582Z,100.00
2023-03-07T09:19:03.076Z,100.00
2023-03-07T09:20:06.908Z,100.00
2023-03-07T09:21:09.180Z,100.00
2023-03-07T09:22:11.149Z,100.00
2023-03-07T09:23:13.026Z,100.00
2023-03-07T09:24:14.982Z,100.00
2023-03-07T09:25:17.583Z,100.00
2023-03-07T09:26:19.760Z,100.00
2023-03-07T09:27:21.769Z,100.00
2023-03-07T09:28:23.655Z,100.00
2023-03-07T09:29:25.816Z,100.00
2023-03-07T09:30:27.861Z,100.00
2023-03-07T09:31:32.251Z,100.00
2023-03-07T09:32:35.559Z,100.00
2023-03-07T09:33:38.404Z,100.00
2023-03-07T09:34:41.597Z,100.00
2023-03-07T09:35:44.147Z,100.00
2023-03-07T09:36:51.352Z,100.00
2023-03-07T09:37:53.368Z,100.00
2023-03-07T09:38:58.025Z,100.00
2023-03-07T09:39:59.766Z,100.00
2023-03-07T09:41:27.790Z,100.00
2023-03-07T09:42:33.464Z,100.00
2023-03-07T09:44:53.157Z,100.00
2023-03-07T09:46:05.114Z,100.00
2023-03-07T09:47:13.677Z,100.00
2023-03-07T09:48:25.431Z,100.00
2023-03-07T09:49:37.672Z,100.00
2023-03-07T09:50:59.341Z,100.00
2023-03-07T09:52:02.417Z,100.00
2023-03-07T09:53:07.791Z,100.00
2023-03-07T09:54:16.489Z,100.00
2023-03-07T09:55:21.283Z,100.00
2023-03-07T09:56:38.572Z,100.00
2023-03-07T09:57:47.263Z,100.00
2023-03-07T09:58:52.997Z,99.90
2023-03-07T10:00:04.873Z,99.32
2023-03-07T10:01:10.866Z,99.16
2023-03-07T10:02:19.581Z,99.59
2023-03-07T10:03:34.954Z,99.23
2023-03-07T10:04:49.786Z,97.12
2023-03-07T10:05:55.742Z,96.79
2023-03-07T10:07:01.182Z,96.32
2023-03-07T10:08:04.878Z,96.02
2023-03-07T10:09:20.083Z,97.17
2023-03-07T10:10:41.127Z,97.84
2023-03-07T10:11:47.006Z,97.14
2023-03-07T10:13:01.880Z,97.03
2023-03-07T10:14:42.728Z,96.76
2023-03-07T10:15:57.248Z,96.90
2023-03-07T10:17:12.364Z,96.51
2023-03-07T10:18:44.901Z,96.33
2023-03-07T10:19:50.464Z,96.30
2023-03-07T10:20:59.730Z,94.40
2023-03-07T10:22:11.478Z,94.66
2023-03-07T10:23:23.211Z,94.77
2023-03-07T10:24:37.068Z,94.30
2023-03-07T10:25:59.924Z,94.30
2023-03-07T10:27:08.706Z,95.10
2023-03-07T10:28:20.310Z,94.48
2023-03-07T10:29:26.203Z,93.81
2023-03-07T10:30:32.016Z,93.95
2023-03-07T10:31:37.905Z,93.69
2023-03-07T10:32:56.661Z,93.36
2023-03-07T10:34:02.777Z,92.54
2023-03-07T10:35:20.611Z,91.77
2023-03-07T10:36:32.144Z,91.73
2023-03-07T10:37:47.877Z,92.96
2023-03-07T10:39:05.934Z,93.28
2023-03-07T10:40:27.099Z,91.58
2023-03-07T10:41:29.827Z,92.23
2023-03-07T10:42:35.805Z,91.72
2023-03-07T10:43:38.812Z,91.07
2023-03-07T10:44:41.257Z,90.96
2023-03-07T10:45:43.281Z,90.29
2023-03-07T10:46:55.439Z,89.74
2023-03-07T10:47:50.069Z,89.39
2023-03-07T10:49:10.119Z,89.07
2023-03-07T10:50:31.070Z,88.82
2023-03-07T10:51:55.191Z,88.47
2023-03-07T10:52:59.844Z,87.65
2023-03-07T10:54:04.595Z,87.17
2023-03-07T10:55:39.611Z,86.37
2023-03-07T10:57:01.970Z,86.14
2023-03-07T10:58:22.949Z,86.07
2023-03-07T10:59:25.182Z,85.95
2023-03-07T11:00:28.224Z,84.60
2023-03-07T11:01:33.053Z,84.11
2023-03-07T11:02:41.131Z,83.47
2023-03-07T11:03:58.735Z,84.80
2023-03-07T11:05:02.634Z,83.54
2023-03-07T11:06:05.410Z,82.29
2023-03-07T11:07:28.621Z,81.59
2023-03-07T11:08:33.854Z,81.78
2023-03-07T11:09:39.542Z,81.66
2023-03-07T11:10:41.683Z,80.93
2023-03-07T11:11:47.685Z,80.65
2023-03-07T11:12:50.216Z,80.59
2023-03-07T11:14:14.823Z,80.75
2023-03-07T11:15:22.402Z,80.84
2023-03-07T11:16:24.544Z,80.69
2023-03-07T11:17:42.537Z,80.45
2023-03-07T11:18:45.633Z,79.99
2023-03-07T11:19:50.008Z,79.72
2023-03-07T11:20:52.986Z,79.76
2023-03-07T11:21:57.821Z,79.89
2023-03-07T11:23:19.649Z,79.44
2023-03-07T11:24:28.101Z,79.20
2023-03-07T11:25:33.884Z,80.38
2023-03-07T11:26:39.339Z,80.98
2023-03-07T11:27:50.652Z,80.98
2023-03-07T11:29:08.469Z,80.27
2023-03-07T11:30:21.045Z,80.97
2023-03-07T11:31:49.479Z,79.12
2023-03-07T11:33:11.306Z,79.12
2023-03-07T11:34:29.000Z,78.51
2023-03-07T11:36:04.053Z,78.08
2023-03-07T11:37:27.823Z,78.74
2023-03-07T11:38:36.824Z,79.58
2023-03-07T11:40:03.424Z,78.81
2023-03-07T11:41:22.003Z,77.81
2023-03-07T11:42:30.833Z,77.54
2023-03-07T11:43:55.070Z,77.06
2023-03-07T11:45:10.205Z,76.27
2023-03-07T11:46:33.331Z,76.18
2023-03-07T11:47:48.437Z,75.56
2023-03-07T11:49:06.461Z,75.20
2023-03-07T11:50:24.212Z,75.33
2023-03-07T11:51:39.270Z,74.89
2023-03-07T11:53:14.278Z,74.27
2023-03-07T11:54:34.956Z,74.60
2023-03-07T11:55:43.725Z,74.60
2023-03-07T11:56:55.847Z,74.97
2023-03-07T11:58:07.467Z,74.56
2023-03-07T11:59:28.571Z,74.02
2023-03-07T12:00:37.453Z,74.65
2023-03-07T12:02:00.424Z,74.15
2023-03-07T12:03:15.085Z,74.24
2023-03-07T12:04:46.863Z,74.12
2023-03-07T12:06:02.650Z,73.96
2023-03-07T12:07:29.690Z,74.38
2023-03-07T12:09:00.408Z,74.36
2023-03-07T12:10:18.429Z,74.51
2023-03-07T12:11:32.976Z,75.61
2023-03-07T12:12:57.103Z,75.47
2023-03-07T12:14:05.726Z,75.69
2023-03-07T12:15:34.649Z,75.52
2023-03-07T12:16:43.404Z,75.41
2023-03-07T12:17:52.064Z,76.41
2023-03-07T12:19:03.624Z,75.93
2023-03-07T12:20:32.700Z,75.75
2023-03-07T12:21:59.861Z,75.75
2023-03-07T12:23:20.648Z,75.34
2023-03-07T12:24:26.432Z,74.96
2023-03-07T12:25:44.923Z,74.74
2023-03-07T12:27:10.669Z,74.39
2023-03-07T12:28:28.296Z,74.49
2023-03-07T12:29:39.980Z,75.21
2023-03-07T12:30:51.854Z,74.85
2023-03-07T12:31:57.788Z,75.55
2023-03-07T12:33:00.947Z,75.20
2023-03-07T12:34:12.397Z,75.27
2023-03-07T12:35:23.975Z,74.65
2023-03-07T12:36:29.979Z,75.23
2023-03-07T12:37:48.177Z,75.23
2023-03-07T12:38:56.658Z,74.57
2023-03-07T12:40:02.219Z,74.48
2023-03-07T12:41:11.001Z,74.01
2023-03-07T12:42:28.472Z,73.60
2023-03-07T12:43:37.314Z,73.50
2023-03-07T12:44:48.806Z,73.54
2023-03-07T12:45:57.512Z,73.71
2023-03-07T12:47:25.223Z,73.38
2023-03-07T12:48:39.421Z,73.40
2023-03-07T12:49:57.361Z,73.25
2023-03-07T12:51:06.141Z,73.73
2023-03-07T12:53:31.957Z,73.42
2023-03-07T12:54:37.717Z,73.85
2023-03-07T12:55:43.488Z,74.18
2023-03-07T12:56:56.439Z,74.42
2023-03-07T12:58:11.313Z,74.43
2023-03-07T12:59:15.637Z,74.01
2023-03-07T13:00:20.597Z,73.57
2023-03-07T13:01:27.217Z,73.73
2023-03-07T13:02:33.014Z,74.05
2023-03-07T13:04:03.378Z,73.74
2023-03-07T13:05:08.398Z,73.37
2023-03-07T13:06:14.694Z,73.44
2023-03-07T13:07:23.666Z,73.36
2023-03-07T13:08:26.311Z,73.06
2023-03-07T13:09:29.041Z,73.06
2023-03-07T13:10:32.267Z,72.91
2023-03-07T13:11:37.215Z,73.06
2023-03-07T13:12:39.201Z,73.07
2023-03-07T13:13:47.712Z,73.02
2023-03-07T13:15:08.411Z,72.92
2023-03-07T13:16:13.855Z,72.82
2023-03-07T13:17:34.968Z,73.00
2023-03-07T13:18:37.104Z,73.04
2023-03-07T13:19:45.652Z,72.89
2023-03-07T13:20:51.563Z,72.56
2023-03-07T13:21:53.650Z,72.28
2023-03-07T13:22:59.032Z,72.79
2023-03-07T13:24:30.822Z,72.94
2023-03-07T13:25:45.260Z,72.91
2023-03-07T13:26:51.166Z,73.17
2023-03-07T13:28:04.899Z,72.96
2023-03-07T13:29:08.280Z,72.90
2023-03-07T13:30:17.026Z,72.67
2023-03-07T13:31:22.752Z,72.35
2023-03-07T13:33:50.228Z,72.77
2023-03-07T13:34:53.423Z,72.77
2023-03-07T13:36:00.000Z,72.74
2023-03-07T13:37:25.912Z,72.78
2023-03-07T13:39:48.086Z,73.02
2023-03-07T13:40:56.013Z,74.04
2023-03-07T13:41:57.941Z,73.63
2023-03-07T13:43:01.035Z,74.93
2023-03-07T13:44:03.593Z,74.83
2023-03-07T13:45:10.409Z,74.87
2023-03-07T13:46:39.775Z,74.67
2023-03-07T13:47:43.715Z,74.54
2023-03-07T13:48:55.319Z,74.21
2023-03-07T13:49:57.081Z,74.01
2023-03-07T13:51:03.134Z,74.31
2023-03-07T13:52:25.870Z,74.71
2023-03-07T13:53:34.317Z,74.46
2023-03-07T13:54:41.854Z,74.10
2023-03-07T13:55:46.697Z,74.10
2023-03-07T13:56:50.417Z,74.15
2023-03-07T13:57:54.920Z,74.02
2023-03-07T13:59:15.530Z,74.45
2023-03-07T14:00:24.368Z,74.53
2023-03-07T14:01:45.805Z,75.18
2023-03-07T14:02:48.881Z,75.18
2023-03-07T14:04:00.790Z,74.78
2023-03-07T14:05:03.310Z,74.68
2023-03-07T14:06:12.271Z,74.58
2023-03-07T14:07:26.955Z,74.60
2023-03-07T14:08:32.529Z,74.52
2023-03-07T14:09:47.165Z,74.10